createdAt,value
2023-02-11T00:01:27.975Z,55.38
2023-02-11T00:03:56.054Z,54.61
2023-02-11T00:06:24.685Z,54.70
2023-02-11T00:08:52.291Z,54.91
2023-02-11T00:11:21.374Z,55.00
2023-02-11T00:13:48.778Z,55.08
2023-02-11T00:16:19.945Z,55.79
2023-02-11T00:18:47.659Z,56.38
2023-02-11T00:21:20.349Z,57.30
2023-02-11T00:23:48.117Z,55.87
2023-02-11T00:26:27.060Z,55.94
2023-02-11T00:28:54.866Z,55.94
2023-02-11T00:31:24.130Z,56.69
2023-02-11T00:33:51.765Z,57.29
2023-02-11T00:36:28.634Z,57.10
2023-02-11T00:38:57.864Z,57.09
2023-02-11T00:41:26.069Z,57.08
2023-02-11T00:43:53.469Z,58.33
2023-02-11T00:46:21.574Z,58.70
2023-02-11T00:48:49.486Z,59.25
2023-02-11T00:51:16.981Z,58.82
2023-02-11T00:53:44.286Z,59.92
2023-02-11T00:56:11.597Z,60.05
2023-02-11T00:58:38.911Z,60.13
2023-02-11T01:01:06.795Z,61.03
2023-02-11T01:03:34.808Z,61.90
2023-02-11T01:06:06.448Z,62.46
2023-02-11T01:08:34.049Z,63.87
2023-02-11T01:11:05.523Z,63.73
2023-02-11T01:13:37.126Z,63.24
2023-02-11T01:16:07.546Z,63.97
2023-02-11T01:18:35.308Z,64.13
2023-02-11T01:21:02.724Z,63.09
2023-02-11T01:23:30.184Z,63.48
2023-02-11T01:25:57.681Z,65.19
2023-02-11T01:28:27.982Z,65.54
2023-02-11T01:30:59.073Z,64.87
2023-02-11T01:33:26.456Z,65.32
2023-02-11T01:35:53.885Z,65.55
2023-02-11T01:38:24.571Z,65.41
2023-02-11T01:41:00.016Z,65.06
2023-02-11T01:43:31.138Z,65.32
2023-02-11T01:46:02.194Z,65.48
2023-02-11T01:48:43.777Z,66.02
2023-02-11T01:51:19.287Z,65.86
2023-02-11T01:54:08.243Z,68.71
2023-02-11T01:56:58.194Z,67.72
2023-02-11T01:59:40.940Z,66.75
2023-02-11T02:02:11.847Z,66.94
2023-02-11T02:04:46.512Z,66.34
2023-02-11T02:07:32.574Z,65.75
2023-02-11T02:10:05.917Z,67.14
2023-02-11T02:12:33.757Z,68.52
2023-02-11T02:15:25.614Z,67.74
2023-02-11T02:18:31.890Z,68.30
2023-02-11T02:21:24.080Z,68.19
2023-02-11T02:24:31.324Z,68.26
2023-02-11T02:27:10.477Z,67.48
2023-02-11T02:30:17.545Z,68.12
2023-02-11T02:33:16.681Z,69.70
2023-02-11T02:36:04.383Z,69.30
2023-02-11T02:38:37.858Z,69.91
2023-02-11T02:41:11.810Z,69.89
2023-02-11T02:43:45.124Z,69.50
2023-02-11T02:46:16.643Z,71.00
2023-02-11T02:48:46.709Z,71.31
2023-02-11T02:51:43.007Z,72.01
2023-02-11T02:54:41.045Z,73.24
2023-02-11T02:57:40.703Z,74.09
2023-02-11T03:00:49.357Z,73.32
2023-02-11T03:03:47.290Z,73.01
2023-02-11T03:06:51.407Z,73.09
2023-02-11T03:09:44.061Z,72.35
2023-02-11T03:12:13.664Z,72.63
2023-02-11T03:14:42.062Z,72.22
2023-02-11T03:17:10.411Z,72.00
2023-02-11T03:19:41.090Z,72.15
2023-02-11T03:22:17.260Z,71.31
2023-02-11T03:24:45.318Z,72.67
2023-02-11T03:27:29.084Z,71.98
2023-02-11T03:30:00.101Z,70.98
2023-02-11T03:32:32.812Z,71.41
2023-02-11T03:35:07.775Z,72.19
2023-02-11T03:37:43.668Z,71.91
2023-02-11T03:40:19.217Z,71.15
2023-02-11T03:42:52.687Z,73.10
2023-02-11T03:45:22.876Z,72.81
2023-02-11T03:47:56.221Z,71.69
2023-02-11T03:50:25.963Z,73.18
2023-02-11T03:52:54.476Z,73.83
2023-02-11T03:55:25.923Z,72.71
2023-02-11T03:57:53.349Z,74.72
2023-02-11T04:00:20.842Z,74.07
2023-02-11T04:02:48.179Z,74.13
2023-02-11T04:05:16.442Z,73.95
2023-02-11T04:07:43.719Z,75.06
2023-02-11T04:10:12.427Z,75.48
2023-02-11T04:12:39.817Z,75.83
2023-02-11T04:15:07.871Z,76.06
2023-02-11T04:17:35.433Z,76.16
2023-02-11T04:20:03.490Z,76.25
2023-02-11T04:22:31.267Z,77.00
2023-02-11T04:24:58.709Z,76.03
2023-02-11T04:27:26.121Z,76.13
2023-02-11T04:29:54.397Z,76.04
2023-02-11T04:32:21.783Z,75.87
2023-02-11T04:34:49.213Z,76.65
2023-02-11T04:37:16.527Z,75.53
2023-02-11T04:39:43.849Z,76.60
2023-02-11T04:42:11.323Z,77.52
2023-02-11T04:44:38.881Z,76.95
2023-02-11T04:47:06.857Z,78.54
2023-02-11T04:49:37.203Z,79.03
2023-02-11T04:52:05.099Z,79.84
2023-02-11T04:54:32.487Z,79.16
2023-02-11T04:56:59.826Z,79.40
2023-02-11T04:59:27.464Z,77.32
2023-02-11T05:01:55.953Z,78.11
2023-02-11T05:04:23.693Z,76.39
2023-02-11T05:06:51.063Z,77.23
2023-02-11T05:09:18.494Z,76.19
2023-02-11T05:11:45.944Z,75.94
2023-02-11T05:14:13.301Z,76.42
2023-02-11T05:16:40.723Z,76.02
2023-02-11T05:19:08.078Z,76.02
2023-02-11T05:21:36.591Z,76.67
2023-02-11T05:24:04.339Z,76.97
2023-02-11T05:26:32.444Z,76.87
2023-02-11T05:28:59.998Z,76.53
2023-02-11T05:31:27.454Z,76.03
2023-02-11T05:33:54.743Z,77.17
2023-02-11T05:36:22.128Z,76.25
2023-02-11T05:38:50.661Z,76.86
2023-02-11T05:41:18.025Z,75.93
2023-02-11T05:43:47.671Z,76.54
2023-02-11T05:46:15.015Z,76.72
2023-02-11T05:48:42.362Z,77.58
2023-02-11T05:51:09.709Z,76.52
2023-02-11T05:53:37.159Z,75.59
2023-02-11T05:56:07.387Z,74.71
2023-02-11T05:58:34.744Z,76.42
2023-02-11T06:01:02.154Z,75.02
2023-02-11T06:03:29.501Z,74.86
2023-02-11T06:05:56.843Z,75.72
2023-02-11T06:08:24.214Z,75.40
2023-02-11T06:10:51.607Z,77.45
2023-02-11T06:13:19.785Z,77.80
2023-02-11T06:15:56.372Z,76.91
2023-02-11T06:18:24.110Z,76.53
2023-02-11T06:20:51.512Z,76.95
2023-02-11T06:23:18.895Z,77.38
2023-02-11T06:25:46.270Z,79.08
2023-02-11T06:28:13.681Z,78.85
2023-02-11T06:30:41.733Z,78.13
2023-02-11T06:33:09.096Z,77.76
2023-02-11T06:35:39.003Z,76.78
2023-02-11T06:38:06.292Z,78.15
2023-02-11T06:40:33.733Z,77.82
2023-02-11T06:43:01.061Z,76.04
2023-02-11T06:45:28.498Z,76.71
2023-02-11T06:47:55.792Z,76.12
2023-02-11T06:50:23.202Z,76.02
2023-02-11T06:52:50.486Z,74.76
2023-02-11T06:55:17.895Z,71.13
2023-02-11T06:57:45.284Z,66.96
2023-02-11T07:00:13.475Z,64.49
2023-02-11T07:02:40.810Z,61.88
2023-02-11T07:05:08.673Z,61.27
2023-02-11T07:07:37.096Z,61.68
2023-02-11T07:10:05.821Z,61.15
2023-02-11T07:12:33.142Z,58.56
2023-02-11T07:15:00.608Z,57.98
2023-02-11T07:17:27.981Z,58.02
2023-02-11T07:19:55.410Z,58.01
2023-02-11T07:22:22.849Z,58.09
2023-02-11T07:24:50.537Z,57.98
2023-02-11T07:27:20.720Z,58.63
2023-02-11T07:29:48.757Z,58.40
2023-02-11T07:32:16.246Z,56.49
2023-02-11T07:34:43.619Z,55.83
2023-02-11T07:37:10.977Z,57.01
2023-02-11T07:39:38.416Z,56.07
2023-02-11T07:42:06.017Z,54.52
2023-02-11T07:44:33.419Z,54.24
2023-02-11T07:47:00.881Z,52.71
2023-02-11T07:49:28.718Z,52.14
2023-02-11T07:51:56.010Z,48.65
2023-02-11T07:54:23.408Z,45.35
2023-02-11T07:56:50.840Z,44.59
2023-02-11T07:59:18.389Z,45.39
2023-02-11T08:01:45.854Z,44.54
2023-02-11T08:04:13.277Z,43.23
2023-02-11T08:06:42.930Z,44.04
2023-02-11T08:09:16.905Z,42.99
2023-02-11T08:11:44.793Z,43.62
2023-02-11T08:14:12.417Z,42.80
2023-02-11T08:16:39.975Z,42.33
2023-02-11T08:19:11.833Z,40.20
2023-02-11T08:21:40.268Z,38.08
2023-02-11T08:24:07.899Z,35.59
2023-02-11T08:26:35.980Z,36.05
2023-02-11T08:29:10.670Z,36.73
2023-02-11T08:31:41.083Z,37.07
2023-02-11T08:34:11.623Z,35.13
2023-02-11T08:36:40.606Z,35.76
2023-02-11T08:39:19.291Z,37.21
2023-02-11T08:41:49.489Z,37.15
2023-02-11T08:44:18.548Z,35.32
2023-02-11T08:46:46.135Z,34.79
2023-02-11T08:49:14.200Z,34.80
2023-02-11T08:51:41.864Z,33.90
2023-02-11T08:54:10.044Z,35.10
2023-02-11T08:56:38.658Z,35.76
2023-02-11T08:59:07.224Z,37.63
2023-02-11T09:01:35.005Z,37.31
2023-02-11T09:04:02.499Z,38.26
2023-02-11T09:06:29.929Z,38.02
2023-02-11T09:08:58.261Z,37.18
2023-02-11T09:11:35.778Z,35.58
2023-02-11T09:14:04.761Z,36.04
2023-02-11T09:16:35.755Z,36.32
2023-02-11T09:19:04.803Z,36.47
2023-02-11T09:21:33.062Z,35.87
2023-02-11T09:24:00.610Z,34.94
2023-02-11T09:26:32.785Z,34.41
2023-02-11T09:29:01.155Z,32.82
2023-02-11T09:31:30.663Z,33.48
2023-02-11T09:34:01.851Z,33.03
2023-02-11T09:36:31.728Z,31.60
2023-02-11T09:39:00.940Z,33.38
2023-02-11T09:41:58.502Z,35.09
2023-02-11T09:44:29.476Z,37.11
2023-02-11T09:47:00.363Z,37.21
2023-02-11T09:49:47.616Z,37.09
2023-02-11T09:52:33.314Z,37.34
2023-02-11T09:55:03.245Z,38.91
2023-02-11T09:57:36.514Z,38.75
2023-02-11T10:00:18.781Z,38.51
2023-02-11T10:02:58.267Z,39.03
2023-02-11T10:05:43.159Z,39.16
2023-02-11T10:08:21.288Z,38.55
2023-02-11T10:11:04.156Z,41.05
2023-02-11T10:14:01.421Z,41.04
2023-02-11T10:16:44.949Z,42.57
2023-02-11T10:19:15.064Z,41.45
2023-02-11T10:21:58.489Z,40.79
2023-02-11T10:24:29.030Z,39.11
2023-02-11T10:26:59.355Z,37.83
2023-02-11T10:29:40.628Z,37.75
2023-02-11T10:32:24.923Z,37.28
2023-02-11T10:34:54.312Z,38.50
2023-02-11T10:37:21.676Z,39.82
2023-02-11T10:39:49.040Z,39.37
2023-02-11T10:42:19.380Z,39.29
2023-02-11T10:45:05.002Z,38.63
2023-02-11T10:47:37.949Z,38.84
2023-02-11T10:50:40.521Z,39.77
2023-02-11T10:53:21.035Z,39.64
2023-02-11T10:55:52.423Z,40.43
2023-02-11T10:58:26.368Z,41.58
2023-02-11T11:00:58.976Z,43.64
2023-02-11T11:03:31.254Z,43.89
2023-02-11T11:06:01.238Z,41.96
2023-02-11T11:08:40.401Z,43.43
2023-02-11T11:11:13.867Z,41.70
2023-02-11T11:13:54.185Z,41.80
2023-02-11T11:16:27.104Z,42.09
2023-02-11T11:19:07.645Z,40.99
2023-02-11T11:21:43.094Z,39.00
2023-02-11T11:24:40.069Z,38.25
2023-02-11T11:27:16.694Z,39.30
2023-02-11T11:29:51.353Z,38.05
2023-02-11T11:32:33.586Z,36.41
2023-02-11T11:35:10.061Z,36.06
2023-02-11T11:37:39.165Z,37.54
2023-02-11T11:40:22.623Z,39.17
2023-02-11T11:43:07.347Z,40.91
2023-02-11T11:45:34.787Z,41.31
2023-02-11T11:48:14.070Z,43.99
2023-02-11T11:50:45.286Z,42.49
2023-02-11T11:53:20.785Z,43.87
2023-02-11T11:56:00.206Z,43.02
2023-02-11T11:58:29.006Z,42.39
2023-02-11T12:01:08.285Z,42.80
2023-02-11T12:04:23.353Z,44.70
2023-02-11T12:07:25.745Z,46.51
2023-02-11T12:09:58.905Z,45.76
2023-02-11T12:13:05.951Z,45.17
2023-02-11T12:15:44.501Z,43.19
2023-02-11T12:18:45.584Z,43.45
2023-02-11T12:21:33.284Z,43.46
2023-02-11T12:24:30.086Z,43.90
2023-02-11T12:27:13.231Z,43.26
2023-02-11T12:29:55.004Z,44.61
2023-02-11T12:32:40.836Z,44.00
2023-02-11T12:35:32.704Z,43.36
2023-02-11T12:38:19.053Z,45.24
2023-02-11T12:40:59.076Z,46.81
2023-02-11T12:43:38.406Z,46.82
2023-02-11T12:46:30.126Z,46.45
2023-02-11T12:49:20.289Z,45.25
2023-02-11T12:51:58.293Z,45.28
2023-02-11T12:54:40.623Z,45.27
2023-02-11T12:57:15.063Z,46.17
2023-02-11T12:59:50.053Z,45.14
2023-02-11T13:02:41.492Z,44.78
2023-02-11T13:05:27.082Z,44.09
2023-02-11T13:08:02.961Z,42.89
2023-02-11T13:10:43.071Z,43.86
2023-02-11T13:13:37.224Z,43.09
2023-02-11T13:16:20.357Z,41.64
2023-02-11T13:19:06.606Z,41.38
2023-02-11T13:21:43.976Z,41.87
2023-02-11T13:24:19.790Z,42.18
2023-02-11T13:27:20.945Z,41.87
2023-02-11T13:30:11.504Z,41.80
2023-02-11T13:32:54.009Z,41.35
2023-02-11T13:35:39.635Z,39.88
2023-02-11T13:38:28.373Z,40.35
2023-02-11T13:41:04.430Z,38.45
2023-02-11T13:43:34.300Z,37.39
2023-02-11T13:46:11.820Z,35.41
2023-02-11T13:48:46.668Z,35.83
2023-02-11T13:51:17.825Z,36.25
2023-02-11T13:53:53.460Z,37.10
2023-02-11T13:56:31.501Z,37.94
2023-02-11T13:59:02.294Z,37.57
2023-02-11T14:02:06.896Z,36.55
2023-02-11T14:04:53.189Z,36.64
2023-02-11T14:07:49.269Z,37.74
2023-02-11T14:10:41.596Z,37.03
2023-02-11T14:13:27.785Z,37.19
2023-02-11T14:16:36.460Z,38.00
2023-02-11T14:19:06.207Z,37.45
2023-02-11T14:21:41.477Z,37.96
2023-02-11T14:24:15.640Z,37.35
2023-02-11T14:27:04.957Z,35.72
2023-02-11T14:29:51.004Z,35.03
2023-02-11T14:32:49.160Z,33.89
2023-02-11T14:35:39.447Z,33.43
2023-02-11T14:38:43.699Z,32.02
2023-02-11T14:41:19.606Z,32.64
2023-02-11T14:43:51.599Z,32.45
2023-02-11T14:46:24.278Z,32.03
2023-02-11T14:48:55.334Z,31.88
2023-02-11T14:51:31.296Z,32.32
2023-02-11T14:54:23.526Z,32.24
2023-02-11T14:57:17.213Z,32.43
2023-02-11T15:00:05.691Z,32.77
2023-02-11T15:02:36.980Z,32.61
2023-02-11T15:05:17.336Z,33.05
2023-02-11T15:07:56.999Z,33.33
2023-02-11T15:10:35.273Z,33.57
2023-02-11T15:13:04.760Z,33.74
2023-02-11T15:15:33.038Z,33.75
2023-02-11T15:18:03.309Z,34.70
2023-02-11T15:20:33.596Z,34.86
2023-02-11T15:23:04.169Z,34.25
2023-02-11T15:25:34.033Z,34.67
2023-02-11T15:28:28.881Z,35.13
2023-02-11T15:30:58.867Z,35.50
2023-02-11T15:33:26.384Z,35.67
2023-02-11T15:35:53.745Z,35.58
2023-02-11T15:38:21.049Z,34.40
2023-02-11T15:41:00.852Z,34.03
2023-02-11T15:43:46.278Z,34.31
2023-02-11T15:46:39.807Z,35.58
2023-02-11T15:49:19.164Z,35.84
2023-02-11T15:51:47.118Z,35.80
2023-02-11T15:54:30.001Z,36.01
2023-02-11T15:57:07.527Z,36.66
2023-02-11T15:59:41.592Z,38.04
2023-02-11T16:02:25.673Z,39.87
2023-02-11T16:04:58.904Z,41.30
2023-02-11T16:07:38.529Z,41.63
2023-02-11T16:10:29.943Z,41.52
2023-02-11T16:13:06.435Z,42.50
2023-02-11T16:15:33.899Z,43.03
2023-02-11T16:18:12.783Z,43.30
2023-02-11T16:20:41.980Z,43.68
2023-02-11T16:23:22.018Z,43.34
2023-02-11T16:25:54.845Z,43.41
2023-02-11T16:28:22.397Z,43.82
2023-02-11T16:30:54.178Z,44.14
2023-02-11T16:33:21.865Z,44.26
2023-02-11T16:35:49.374Z,44.21
2023-02-11T16:38:19.577Z,43.70
2023-02-11T16:40:49.350Z,43.64
2023-02-11T16:43:20.281Z,44.16
2023-02-11T16:45:48.229Z,43.64
2023-02-11T16:48:19.208Z,44.09
2023-02-11T16:50:52.224Z,43.98
2023-02-11T16:53:24.188Z,44.74
2023-02-11T16:55:54.219Z,44.78
2023-02-11T16:58:21.676Z,44.83
2023-02-11T17:00:49.651Z,44.85
2023-02-11T17:03:26.145Z,44.64
2023-02-11T17:05:55.932Z,45.07
2023-02-11T17:08:23.540Z,45.83
2023-02-11T17:10:51.184Z,45.98
2023-02-11T17:13:18.879Z,46.87
2023-02-11T17:15:46.258Z,46.60
2023-02-11T17:18:16.897Z,46.73
2023-02-11T17:20:44.288Z,47.38
2023-02-11T17:23:11.666Z,47.28
2023-02-11T17:25:39.023Z,47.33
2023-02-11T17:28:08.248Z,48.03
2023-02-11T17:30:35.787Z,48.32
2023-02-11T17:33:03.147Z,47.79
2023-02-11T17:35:30.478Z,47.65
2023-02-11T17:37:58.721Z,47.65
2023-02-11T17:40:26.404Z,48.16
2023-02-11T17:42:53.779Z,48.77
2023-02-11T17:45:22.469Z,48.94
2023-02-11T17:47:49.956Z,48.73
2023-02-11T17:50:17.467Z,49.41
2023-02-11T17:52:45.035Z,48.93
2023-02-11T17:55:12.392Z,49.58
2023-02-11T17:57:40.451Z,49.53
2023-02-11T18:00:09.515Z,50.20
2023-02-11T18:02:45.366Z,49.79
2023-02-11T18:05:12.709Z,49.24
2023-02-11T18:07:40.431Z,50.16
2023-02-11T18:10:08.720Z,49.05
2023-02-11T18:12:36.177Z,48.68
2023-02-11T18:15:03.626Z,48.85
2023-02-11T18:17:31.067Z,48.64
2023-02-11T18:19:58.777Z,48.40
2023-02-11T18:22:26.747Z,48.10
2023-02-11T18:24:55.113Z,48.04
2023-02-11T18:27:22.578Z,48.10
2023-02-11T18:29:50.263Z,48.52
2023-02-11T18:32:17.610Z,48.72
2023-02-11T18:34:44.893Z,49.13
2023-02-11T18:37:14.299Z,49.47
2023-02-11T18:39:42.349Z,48.93
2023-02-11T18:42:10.327Z,48.86
2023-02-11T18:44:37.703Z,48.93
2023-02-11T18:47:05.079Z,49.82
2023-02-11T18:49:36.199Z,50.12
2023-02-11T18:52:03.935Z,49.66
2023-02-11T18:54:31.288Z,50.22
2023-02-11T18:56:58.672Z,50.36
2023-02-11T18:59:25.997Z,49.91
2023-02-11T19:01:53.344Z,50.54
2023-02-11T19:04:23.341Z,50.95
2023-02-11T19:06:50.933Z,51.57
2023-02-11T19:09:19.982Z,51.51
2023-02-11T19:11:47.963Z,51.95
2023-02-11T19:14:18.364Z,52.59
2023-02-11T19:16:46.425Z,52.14
2023-02-11T19:19:14.167Z,52.39
2023-02-11T19:21:43.780Z,53.68
2023-02-11T19:24:12.823Z,54.16
2023-02-11T19:26:40.178Z,54.47
2023-02-11T19:29:07.797Z,53.81
2023-02-11T19:31:35.369Z,53.99
2023-02-11T19:34:03.455Z,54.61
2023-02-11T19:36:31.030Z,53.92
2023-02-11T19:39:02.117Z,54.58
2023-02-11T19:41:30.652Z,54.35
2023-02-11T19:43:58.037Z,55.08
2023-02-11T19:46:28.115Z,54.87
2023-02-11T19:48:55.611Z,55.37
2023-02-11T19:51:22.955Z,56.30
2023-02-11T19:53:51.275Z,55.94
2023-02-11T19:56:20.827Z,56.60
2023-02-11T19:58:48.324Z,57.11
2023-02-11T20:01:18.901Z,58.33
2023-02-11T20:03:49.979Z,58.72
2023-02-11T20:06:23.278Z,58.97
2023-02-11T20:08:59.110Z,59.37
2023-02-11T20:11:28.880Z,59.78
2023-02-11T20:13:57.282Z,59.94
2023-02-11T20:16:44.570Z,60.65
2023-02-11T20:19:17.818Z,59.89
2023-02-11T20:21:47.560Z,60.37
2023-02-11T20:24:17.472Z,61.29
2023-02-11T20:26:46.914Z,60.82
2023-02-11T20:29:15.930Z,61.41
2023-02-11T20:31:43.577Z,60.61
2023-02-11T20:34:12.123Z,61.00
2023-02-11T20:36:40.635Z,60.75
2023-02-11T20:39:08.987Z,61.50
2023-02-11T20:41:39.857Z,61.98
2023-02-11T20:44:09.979Z,61.77
2023-02-11T20:46:40.332Z,62.35
2023-02-11T20:49:08.810Z,62.49
2023-02-11T20:51:37.351Z,63.96
2023-02-11T20:54:06.332Z,63.24
2023-02-11T20:56:36.814Z,63.63
2023-02-11T20:59:05.829Z,63.83
2023-02-11T21:01:42.474Z,63.24
2023-02-11T21:04:13.182Z,63.82
2023-02-11T21:06:45.377Z,63.23
2023-02-11T21:09:22.072Z,63.40
2023-02-11T21:11:51.603Z,64.50
2023-02-11T21:14:19.970Z,65.09
2023-02-11T21:16:48.181Z,65.86
2023-02-11T21:19:18.497Z,66.17
2023-02-11T21:21:45.927Z,66.26
2023-02-11T21:24:13.389Z,66.63
2023-02-11T21:26:40.898Z,67.04
2023-02-11T21:29:08.714Z,67.24
2023-02-11T21:31:37.849Z,68.04
2023-02-11T21:34:06.362Z,68.98
2023-02-11T21:36:34.148Z,69.09
2023-02-11T21:39:03.816Z,68.74
2023-02-11T21:41:31.295Z,68.67
2023-02-11T21:43:58.603Z,70.35
2023-02-11T21:46:28.990Z,70.58
2023-02-11T21:48:57.412Z,70.90
2023-02-11T21:51:26.248Z,70.36
2023-02-11T21:53:59.244Z,71.02
2023-02-11T21:56:28.228Z,71.55
2023-02-11T21:58:57.606Z,72.13
2023-02-11T22:01:30.965Z,71.03
2023-02-11T22:03:58.898Z,71.03
2023-02-11T22:06:31.080Z,71.66
2023-02-11T22:09:01.585Z,71.67
2023-02-11T22:11:31.616Z,71.46
2023-02-11T22:13:59.291Z,71.21
2023-02-11T22:16:27.669Z,72.10
2023-02-11T22:18:58.374Z,71.05
2023-02-11T22:21:25.988Z,71.13
2023-02-11T22:23:54.591Z,70.99
2023-02-11T22:26:23.727Z,71.60
2023-02-11T22:28:52.021Z,71.55
2023-02-11T22:31:22.359Z,72.24
2023-02-11T22:33:50.065Z,73.46
2023-02-11T22:36:26.948Z,74.06
2023-02-11T22:38:54.949Z,73.16
2023-02-11T22:41:23.199Z,73.55
2023-02-11T22:43:50.534Z,73.20
2023-02-11T22:46:19.586Z,72.85
2023-02-11T22:48:48.962Z,73.08
2023-02-11T22:51:19.760Z,73.90
2023-02-11T22:53:57.216Z,74.15
2023-02-11T22:56:24.899Z,73.25
2023-02-11T22:58:55.764Z,73.31
2023-02-11T23:01:23.271Z,74.02
2023-02-11T23:03:50.680Z,72.71
2023-02-11T23:06:18.180Z,72.86
2023-02-11T23:08:46.420Z,73.31
2023-02-11T23:11:20.197Z,72.44
2023-02-11T23:13:49.773Z,72.42
2023-02-11T23:16:19.650Z,74.05
2023-02-11T23:18:48.439Z,74.07
2023-02-11T23:21:22.177Z,73.71
2023-02-11T23:23:53.742Z,73.47
2023-02-11T23:26:21.238Z,74.41
2023-02-11T23:28:48.603Z,73.95
2023-02-11T23:31:23.681Z,74.24
2023-02-11T23:33:51.615Z,74.93
2023-02-11T23:36:21.091Z,75.02
2023-02-11T23:38:48.900Z,75.63
2023-02-11T23:41:17.145Z,74.69
2023-02-11T23:43:44.585Z,74.98
2023-02-11T23:46:12.032Z,74.74
2023-02-11T23:48:41.315Z,75.34
2023-02-11T23:51:11.665Z,74.99
2023-02-11T23:53:39.538Z,74.11
2023-02-11T23:56:13.988Z,74.96
2023-02-11T23:58:41.382Z,76.38
